createdAt,value
2022-11-05T00:01:42.208Z,4.05
2022-11-05T00:04:35.861Z,4.22
2022-11-05T00:07:24.156Z,4.07
2022-11-05T00:09:52.864Z,4.38
2022-11-05T00:12:46.338Z,4.60
2022-11-05T00:15:31.647Z,4.75
2022-11-05T00:18:00.450Z,4.43
2022-11-05T00:20:27.923Z,4.43
2022-11-05T00:23:18.573Z,4.20
2022-11-05T00:25:54.490Z,5.00
2022-11-05T00:28:21.994Z,4.53
2022-11-05T00:30:49.511Z,4.50
2022-11-05T00:33:18.358Z,4.40
2022-11-05T00:35:45.875Z,4.47
2022-11-05T00:38:13.381Z,4.13
2022-11-05T00:40:40.874Z,4.35
2022-11-05T00:43:26.129Z,4.38
2022-11-05T00:45:53.586Z,4.53
2022-11-05T00:48:40.191Z,4.57
2022-11-05T00:51:07.887Z,4.60
2022-11-05T00:53:35.517Z,4.28
2022-11-05T00:56:03.076Z,4.63
2022-11-05T00:58:30.603Z,4.85
2022-11-05T01:00:58.908Z,4.45
2022-11-05T01:03:28.560Z,4.38
2022-11-05T01:05:56.769Z,4.50
2022-11-05T01:08:25.105Z,4.82
2022-11-05T01:10:53.548Z,4.82
2022-11-05T01:13:23.394Z,4.55
2022-11-05T01:15:51.641Z,4.70
2022-11-05T01:18:19.234Z,4.68
2022-11-05T01:20:48.050Z,4.60
2022-11-05T01:23:15.823Z,4.53
2022-11-05T01:25:43.627Z,4.30
2022-11-05T01:28:11.116Z,4.35
2022-11-05T01:30:38.650Z,4.15
2022-11-05T01:33:06.252Z,4.90
2022-11-05T01:35:33.745Z,4.05
2022-11-05T01:38:02.524Z,4.57
2022-11-05T01:40:29.937Z,4.63
2022-11-05T01:42:57.368Z,4.07
2022-11-05T01:45:25.070Z,4.40
2022-11-05T01:48:00.915Z,4.47
2022-11-05T01:50:37.247Z,4.75
2022-11-05T01:53:10.981Z,4.50
2022-11-05T01:55:40.416Z,4.40
2022-11-05T01:58:08.374Z,4.00
2022-11-05T02:00:35.929Z,4.80
2022-11-05T02:03:03.467Z,4.40
2022-11-05T02:05:30.945Z,4.50
2022-11-05T02:07:58.390Z,4.72
2022-11-05T02:10:27.172Z,4.82
2022-11-05T02:12:54.618Z,4.75
2022-11-05T02:15:26.178Z,4.80
2022-11-05T02:17:57.770Z,5.03
2022-11-05T02:20:36.821Z,4.68
2022-11-05T02:23:45.820Z,4.72
2022-11-05T02:26:44.451Z,4.60
2022-11-05T02:29:56.357Z,5.18
2022-11-05T02:32:31.964Z,4.70
2022-11-05T02:35:05.213Z,4.55
2022-11-05T02:37:38.940Z,5.22
2022-11-05T02:40:10.293Z,4.93
2022-11-05T02:42:41.200Z,5.38
2022-11-05T02:45:11.707Z,5.43
2022-11-05T02:47:42.643Z,4.97
2022-11-05T02:50:17.198Z,4.60
2022-11-05T02:52:47.464Z,5.10
2022-11-05T02:55:19.990Z,4.65
2022-11-05T02:57:47.977Z,4.90
2022-11-05T03:00:45.013Z,5.22
2022-11-05T03:03:18.760Z,4.95
2022-11-05T03:05:57.107Z,4.50
2022-11-05T03:08:34.519Z,4.47
2022-11-05T03:11:03.374Z,5.50
2022-11-05T03:13:33.148Z,4.47
2022-11-05T03:16:01.850Z,4.75
2022-11-05T03:18:33.252Z,4.68
2022-11-05T03:21:03.546Z,5.10
2022-11-05T03:23:34.640Z,4.90
2022-11-05T03:26:05.457Z,4.70
2022-11-05T03:28:35.131Z,4.97
2022-11-05T03:31:02.604Z,4.85
2022-11-05T03:33:32.375Z,5.07
2022-11-05T03:36:02.144Z,4.78
2022-11-05T03:38:35.759Z,5.55
2022-11-05T03:41:05.987Z,5.00
2022-11-05T03:43:35.373Z,5.97
2022-11-05T03:46:03.829Z,5.10
2022-11-05T03:48:32.651Z,5.72
2022-11-05T03:51:01.455Z,5.70
2022-11-05T03:53:29.649Z,5.80
2022-11-05T03:56:00.091Z,5.60
2022-11-05T03:58:27.583Z,6.15
2022-11-05T04:00:55.013Z,5.47
2022-11-05T04:03:22.447Z,5.72
2022-11-05T04:06:13.092Z,5.68
2022-11-05T04:08:59.298Z,6.13
2022-11-05T04:11:44.604Z,5.88
2022-11-05T04:14:12.053Z,5.80
2022-11-05T04:16:53.457Z,6.47
2022-11-05T04:19:41.360Z,5.80
2022-11-05T04:22:27.927Z,6.60
2022-11-05T04:24:55.364Z,6.40
2022-11-05T04:27:22.792Z,6.55
2022-11-05T04:30:08.008Z,5.93
2022-11-05T04:32:35.469Z,7.32
2022-11-05T04:35:02.900Z,7.30
2022-11-05T04:37:31.694Z,7.13
2022-11-05T04:39:59.106Z,7.53
2022-11-05T04:42:26.547Z,7.32
2022-11-05T04:44:54.018Z,7.88
2022-11-05T04:47:21.451Z,7.43
2022-11-05T04:49:48.883Z,7.00
2022-11-05T04:52:17.808Z,7.40
2022-11-05T04:54:46.556Z,8.43
2022-11-05T04:57:14.030Z,7.07
2022-11-05T04:59:41.485Z,7.72
2022-11-05T05:02:09.078Z,8.40
2022-11-05T05:04:36.606Z,7.78
2022-11-05T05:07:04.036Z,7.90
2022-11-05T05:09:31.473Z,7.57
2022-11-05T05:12:01.219Z,7.68
2022-11-05T05:14:28.661Z,7.47
2022-11-05T05:16:56.095Z,7.60
2022-11-05T05:19:24.875Z,8.02
2022-11-05T05:21:51.354Z,7.70
2022-11-05T05:24:20.928Z,7.45
2022-11-05T05:26:49.395Z,7.32
2022-11-05T05:29:18.425Z,6.85
2022-11-05T05:31:45.885Z,7.32
2022-11-05T05:34:14.025Z,7.60
2022-11-05T05:36:41.574Z,6.60
2022-11-05T05:39:10.695Z,7.30
2022-11-05T05:41:38.126Z,7.05
2022-11-05T05:44:05.648Z,7.10
2022-11-05T05:46:34.431Z,6.65
2022-11-05T05:49:01.896Z,6.50
2022-11-05T05:51:29.337Z,6.88
2022-11-05T05:53:56.800Z,6.88
2022-11-05T05:56:24.247Z,7.00
2022-11-05T05:58:52.175Z,6.85
2022-11-05T06:01:20.323Z,6.93
2022-11-05T06:03:49.315Z,6.70
2022-11-05T06:06:19.498Z,6.22
2022-11-05T06:08:47.340Z,6.93
2022-11-05T06:11:14.784Z,6.72
2022-11-05T06:13:42.243Z,6.78
2022-11-05T06:16:10.034Z,6.35
2022-11-05T06:18:37.648Z,6.47
2022-11-05T06:21:07.420Z,6.70
2022-11-05T06:23:35.263Z,6.30
2022-11-05T06:26:02.733Z,7.15
2022-11-05T06:28:30.546Z,6.57
2022-11-05T06:30:58.018Z,5.85
2022-11-05T06:33:25.498Z,6.13
2022-11-05T06:35:52.984Z,6.72
2022-11-05T06:38:21.771Z,6.20
2022-11-05T06:40:49.206Z,6.68
2022-11-05T06:43:16.665Z,6.35
2022-11-05T06:45:44.108Z,6.40
2022-11-05T06:48:11.554Z,6.20
2022-11-05T06:50:38.988Z,6.10
2022-11-05T06:53:06.404Z,6.55
2022-11-05T06:55:35.188Z,6.15
2022-11-05T06:58:02.690Z,5.78
2022-11-05T07:00:30.224Z,6.28
2022-11-05T07:03:04.556Z,5.97
2022-11-05T07:05:32.265Z,5.60
2022-11-05T07:07:59.700Z,5.75
2022-11-05T07:10:27.131Z,5.88
2022-11-05T07:12:55.896Z,5.78
2022-11-05T07:15:23.392Z,5.60
2022-11-05T07:17:50.841Z,6.13
2022-11-05T07:20:18.415Z,5.32
2022-11-05T07:22:45.838Z,5.70
2022-11-05T07:25:13.258Z,5.20
2022-11-05T07:27:40.775Z,5.70
2022-11-05T07:30:10.582Z,5.78
2022-11-05T07:32:39.229Z,5.10
2022-11-05T07:35:07.852Z,5.63
2022-11-05T07:37:42.277Z,5.82
2022-11-05T07:40:11.008Z,5.35
2022-11-05T07:42:38.471Z,5.13
2022-11-05T07:45:06.803Z,5.03
2022-11-05T07:47:37.257Z,5.45
2022-11-05T07:50:04.957Z,5.68
2022-11-05T07:52:32.491Z,5.25
2022-11-05T07:55:00.010Z,5.43
2022-11-05T07:57:27.472Z,5.30
2022-11-05T07:59:55.057Z,5.05
2022-11-05T08:02:22.743Z,5.32
2022-11-05T08:04:51.713Z,5.15
2022-11-05T08:07:19.169Z,5.13
2022-11-05T08:09:46.638Z,5.25
2022-11-05T08:12:14.106Z,5.53
2022-11-05T08:14:41.553Z,5.25
2022-11-05T08:17:09.038Z,4.88
2022-11-05T08:19:36.480Z,4.95
2022-11-05T08:22:05.267Z,4.93
2022-11-05T08:24:32.741Z,5.22
2022-11-05T08:27:00.238Z,5.20
2022-11-05T08:29:27.708Z,5.35
2022-11-05T08:31:55.166Z,5.50
2022-11-05T08:34:22.812Z,4.90
2022-11-05T08:36:50.267Z,5.65
2022-11-05T08:39:19.784Z,5.43
2022-11-05T08:41:47.839Z,5.45
2022-11-05T08:44:15.368Z,5.88
2022-11-05T08:46:42.784Z,5.07
2022-11-05T08:49:10.223Z,5.32
2022-11-05T08:51:38.335Z,5.40
2022-11-05T08:54:06.301Z,5.70
2022-11-05T08:56:35.068Z,4.95
2022-11-05T08:59:02.515Z,5.70
2022-11-05T09:01:30.142Z,6.63
2022-11-05T09:03:57.776Z,5.95
2022-11-05T09:06:25.201Z,5.75
2022-11-05T09:08:52.670Z,5.53
2022-11-05T09:11:20.111Z,5.70
2022-11-05T09:13:48.945Z,5.93
2022-11-05T09:16:18.967Z,6.00
2022-11-05T09:18:46.412Z,6.50
2022-11-05T09:21:13.930Z,5.97
2022-11-05T09:23:41.430Z,6.78
2022-11-05T09:26:09.798Z,6.40
2022-11-05T09:28:37.296Z,6.82
2022-11-05T09:31:08.223Z,6.22
2022-11-05T09:33:36.113Z,6.75
2022-11-05T09:36:03.626Z,6.78
2022-11-05T09:38:31.584Z,6.88
2022-11-05T09:41:00.637Z,6.75
2022-11-05T09:43:32.209Z,7.13
2022-11-05T09:46:00.563Z,7.40
2022-11-05T09:48:30.227Z,6.85
2022-11-05T09:50:58.137Z,7.03
2022-11-05T09:53:25.600Z,6.85
2022-11-05T09:55:54.657Z,6.53
2022-11-05T09:58:28.750Z,6.95
2022-11-05T10:00:56.729Z,7.00
2022-11-05T10:03:24.509Z,6.97
2022-11-05T10:05:53.382Z,7.30
2022-11-05T10:08:22.216Z,7.70
2022-11-05T10:10:50.972Z,6.93
2022-11-05T10:13:22.807Z,7.45
2022-11-05T10:15:55.108Z,7.10
2022-11-05T10:18:24.582Z,7.25
2022-11-05T10:20:53.365Z,7.32
2022-11-05T10:23:21.527Z,7.18
2022-11-05T10:25:49.807Z,7.47
2022-11-05T10:28:19.366Z,6.97
2022-11-05T10:30:47.686Z,7.28
2022-11-05T10:33:17.304Z,6.90
2022-11-05T10:35:48.439Z,7.10
2022-11-05T10:38:17.220Z,7.28
2022-11-05T10:40:49.959Z,6.80
2022-11-05T10:43:18.986Z,6.88
2022-11-05T10:45:55.209Z,6.88
2022-11-05T10:48:32.884Z,6.88
2022-11-05T10:51:00.318Z,7.13
2022-11-05T10:53:30.956Z,6.45
2022-11-05T10:55:59.110Z,7.03
2022-11-05T10:58:28.835Z,7.10
2022-11-05T11:01:08.218Z,6.78
2022-11-05T11:03:39.875Z,5.10
2022-11-05T11:06:13.105Z,6.75
2022-11-05T11:08:41.898Z,6.50
2022-11-05T11:11:11.514Z,6.85
2022-11-05T11:13:50.138Z,6.47
2022-11-05T11:16:20.691Z,6.15
2022-11-05T11:18:48.158Z,6.40
2022-11-05T11:21:16.735Z,6.20
2022-11-05T11:23:45.523Z,6.25
2022-11-05T11:26:12.946Z,5.78
2022-11-05T11:28:41.948Z,6.00
2022-11-05T11:31:10.504Z,5.72
2022-11-05T11:33:38.296Z,5.90
2022-11-05T11:36:06.172Z,5.97
2022-11-05T11:38:36.009Z,5.63
2022-11-05T11:41:09.716Z,5.40
2022-11-05T11:43:38.253Z,5.70
2022-11-05T11:46:09.893Z,5.45
2022-11-05T11:48:40.824Z,5.30
2022-11-05T11:51:17.398Z,5.50
2022-11-05T11:53:44.827Z,6.18
2022-11-05T11:56:20.376Z,4.85
2022-11-05T11:58:49.046Z,4.90
2022-11-05T12:01:57.946Z,5.30
2022-11-05T12:04:42.185Z,4.75
2022-11-05T12:07:15.625Z,5.03
2022-11-05T12:09:54.158Z,4.85
2022-11-05T12:12:24.389Z,5.07
2022-11-05T12:14:54.170Z,5.13
2022-11-05T12:17:27.008Z,4.85
2022-11-05T12:20:02.315Z,4.38
2022-11-05T12:22:34.438Z,4.18
2022-11-05T12:25:11.594Z,4.60
2022-11-05T12:27:48.100Z,4.68
2022-11-05T12:30:16.752Z,4.60
2022-11-05T12:33:04.263Z,4.47
2022-11-05T12:35:45.719Z,4.28
2022-11-05T12:38:21.122Z,3.97
2022-11-05T12:40:56.781Z,4.57
2022-11-05T12:43:31.126Z,4.20
2022-11-05T12:46:01.383Z,4.57
2022-11-05T12:48:52.392Z,4.13
2022-11-05T12:51:28.743Z,4.05
2022-11-05T12:54:02.095Z,3.97
2022-11-05T12:56:33.051Z,3.92
2022-11-05T12:59:06.738Z,4.00
2022-11-05T13:01:35.913Z,3.55
2022-11-05T13:04:08.586Z,3.20
2022-11-05T13:06:39.580Z,4.05
2022-11-05T13:09:09.965Z,3.40
2022-11-05T13:14:10.088Z,3.13
2022-11-05T13:16:38.711Z,3.50
2022-11-05T13:19:11.736Z,3.40
2022-11-05T13:21:39.182Z,3.38
2022-11-05T13:24:10.588Z,3.40
2022-11-05T13:26:39.591Z,3.53
2022-11-05T13:29:10.188Z,3.28
2022-11-05T13:31:39.108Z,3.13
2022-11-05T13:34:10.325Z,3.28
2022-11-05T13:37:00.629Z,3.05
2022-11-05T13:39:29.999Z,3.13
2022-11-05T13:42:19.542Z,2.85
2022-11-05T13:45:07.651Z,3.10
2022-11-05T13:48:09.808Z,3.05
2022-11-05T13:50:52.464Z,3.10
2022-11-05T13:53:58.523Z,3.10
2022-11-05T13:56:38.062Z,2.75
2022-11-05T13:59:17.825Z,2.75
2022-11-05T14:01:49.642Z,2.75
2022-11-05T14:04:25.952Z,2.90
2022-11-05T14:06:53.392Z,2.80
2022-11-05T14:09:25.688Z,2.75
2022-11-05T14:11:54.914Z,2.70
2022-11-05T14:14:23.497Z,2.90
2022-11-05T14:16:54.177Z,2.97
2022-11-05T14:19:35.635Z,2.85
2022-11-05T14:22:36.166Z,2.72
2022-11-05T14:25:25.313Z,2.90
2022-11-05T14:27:52.896Z,2.92
2022-11-05T14:30:41.218Z,2.60
2022-11-05T14:33:18.195Z,2.75
2022-11-05T14:35:45.645Z,3.33
2022-11-05T14:38:20.691Z,3.00
2022-11-05T14:40:49.113Z,2.88
2022-11-05T14:43:21.352Z,2.17
2022-11-05T14:45:56.415Z,2.65
2022-11-05T14:48:28.182Z,2.63
2022-11-05T14:50:55.648Z,3.00
2022-11-05T14:53:27.798Z,2.80
2022-11-05T14:55:58.894Z,2.60
2022-11-05T14:58:29.107Z,2.78
2022-11-05T15:03:41.099Z,2.53
2022-11-05T15:06:28.011Z,2.70
2022-11-05T15:09:20.103Z,2.70
2022-11-05T15:11:53.622Z,2.67
2022-11-05T15:14:22.718Z,2.90
2022-11-05T15:16:51.164Z,2.55
2022-11-05T15:19:22.843Z,2.67
2022-11-05T15:21:50.528Z,2.75
2022-11-05T15:24:18.542Z,2.55
2022-11-05T15:26:48.331Z,2.80
2022-11-05T15:29:17.478Z,2.83
2022-11-05T15:31:45.353Z,2.92
2022-11-05T15:34:22.889Z,2.60
2022-11-05T15:36:54.723Z,2.70
2022-11-05T15:39:29.485Z,2.60
2022-11-05T15:41:57.606Z,2.88
2022-11-05T15:44:29.488Z,2.90
2022-11-05T15:47:17.735Z,2.47
2022-11-05T15:49:47.355Z,3.70
2022-11-05T15:52:15.477Z,3.25
2022-11-05T15:54:43.532Z,3.30
2022-11-05T15:57:20.812Z,2.75
2022-11-05T15:59:48.356Z,3.40
2022-11-05T16:02:28.731Z,3.22
2022-11-05T16:04:57.666Z,2.95
2022-11-05T16:07:25.142Z,3.30
2022-11-05T16:09:54.222Z,3.28
2022-11-05T16:12:34.082Z,3.53
2022-11-05T16:15:04.695Z,3.70
2022-11-05T16:17:34.130Z,4.05
2022-11-05T16:20:03.057Z,3.80
2022-11-05T16:22:45.260Z,3.72
2022-11-05T16:25:28.290Z,3.55
2022-11-05T16:27:55.809Z,3.78
2022-11-05T16:30:23.516Z,3.63
2022-11-05T16:32:50.978Z,3.80
2022-11-05T16:35:21.347Z,3.30
2022-11-05T16:37:51.983Z,3.55
2022-11-05T16:40:20.928Z,3.97
2022-11-05T16:42:51.143Z,4.03
2022-11-05T16:47:46.412Z,3.83
2022-11-05T16:50:20.293Z,3.63
2022-11-05T16:52:48.066Z,3.60
2022-11-05T16:55:15.877Z,4.00
2022-11-05T16:57:43.995Z,3.90
2022-11-05T17:00:14.196Z,3.55
2022-11-05T17:05:23.121Z,4.10
2022-11-05T17:07:50.597Z,4.22
2022-11-05T17:10:18.191Z,4.90
2022-11-05T17:12:45.743Z,4.60
2022-11-05T17:15:18.119Z,5.03
2022-11-05T17:17:45.635Z,4.38
2022-11-05T17:20:15.763Z,4.70
2022-11-05T17:25:11.833Z,4.75
2022-11-05T17:27:39.286Z,4.30
2022-11-05T17:30:08.305Z,4.68
2022-11-05T17:32:35.805Z,4.80
2022-11-05T17:35:03.558Z,5.20
2022-11-05T17:37:31.008Z,4.80
2022-11-05T17:39:59.816Z,5.25
2022-11-05T17:42:27.277Z,5.20
2022-11-05T17:44:54.727Z,5.30
2022-11-05T17:47:22.161Z,5.30
2022-11-05T17:49:49.610Z,5.03
2022-11-05T17:52:17.032Z,5.43
2022-11-05T17:54:44.458Z,5.07
2022-11-05T17:57:13.208Z,5.03
2022-11-05T17:59:41.932Z,4.68
2022-11-05T18:02:10.526Z,5.22
2022-11-05T18:04:38.115Z,5.20
2022-11-05T18:07:05.681Z,5.20
2022-11-05T18:09:33.145Z,5.05
2022-11-05T18:12:00.593Z,5.38
2022-11-05T18:14:29.428Z,5.10
2022-11-05T18:17:00.204Z,4.80
2022-11-05T18:19:28.139Z,5.30
2022-11-05T18:21:55.683Z,5.63
2022-11-05T18:24:23.208Z,5.80
2022-11-05T18:26:50.858Z,5.30
2022-11-05T18:29:18.307Z,5.97
2022-11-05T18:31:47.036Z,5.50
2022-11-05T18:34:14.483Z,5.40
2022-11-05T18:36:41.929Z,5.30
2022-11-05T18:39:09.450Z,5.63
2022-11-05T18:41:36.887Z,5.60
2022-11-05T18:44:04.507Z,5.22
2022-11-05T18:49:21.088Z,5.45
2022-11-05T18:51:48.563Z,5.57
2022-11-05T18:54:16.000Z,5.43
2022-11-05T18:56:45.753Z,5.70
2022-11-05T18:59:35.285Z,5.50
2022-11-05T19:02:01.109Z,5.30
2022-11-05T19:04:30.508Z,5.07
2022-11-05T19:07:01.656Z,5.45
2022-11-05T19:09:32.121Z,5.00
2022-11-05T19:11:59.559Z,5.32
2022-11-05T19:14:27.037Z,5.53
2022-11-05T19:16:54.477Z,5.07
2022-11-05T19:19:23.112Z,5.10
2022-11-05T19:21:51.934Z,5.35
2022-11-05T19:24:19.383Z,5.10
2022-11-05T19:26:47.440Z,5.38
2022-11-05T19:29:14.881Z,4.88
2022-11-05T19:31:42.327Z,5.32
2022-11-05T19:34:09.947Z,5.00
2022-11-05T19:36:37.384Z,4.90
2022-11-05T19:39:08.647Z,4.60
2022-11-05T19:41:36.139Z,5.03
2022-11-05T19:44:03.691Z,4.97
2022-11-05T19:46:31.442Z,5.20
2022-11-05T19:48:59.964Z,5.10
2022-11-05T19:51:29.117Z,4.88
2022-11-05T19:53:56.870Z,5.30
2022-11-05T19:56:27.095Z,5.15
2022-11-05T20:01:22.876Z,5.38
2022-11-05T20:03:50.462Z,5.28
2022-11-05T20:06:18.801Z,4.90
2022-11-05T20:09:20.188Z,5.28
2022-11-05T20:11:36.757Z,4.63
2022-11-05T20:14:04.792Z,5.07
2022-11-05T20:16:36.799Z,4.78
2022-11-05T20:19:04.761Z,4.35
2022-11-05T20:21:32.202Z,4.18
2022-11-05T20:23:59.764Z,4.50
2022-11-05T20:26:27.289Z,5.03
2022-11-05T20:28:56.132Z,4.53
2022-11-05T20:31:23.689Z,4.47
2022-11-05T20:33:51.151Z,4.78
2022-11-05T20:36:19.326Z,4.20
2022-11-05T20:38:48.787Z,4.75
2022-11-05T20:41:16.401Z,4.20
2022-11-05T20:43:43.982Z,4.13
2022-11-05T20:46:14.431Z,4.00
2022-11-05T20:48:42.143Z,3.80
2022-11-05T20:51:10.750Z,3.97
2022-11-05T20:53:38.503Z,3.90
2022-11-05T20:56:08.410Z,4.07
2022-11-05T20:58:36.286Z,3.67
2022-11-05T21:01:03.767Z,3.88
2022-11-05T21:03:32.536Z,4.20
2022-11-05T21:06:00.188Z,3.58
2022-11-05T21:08:27.682Z,3.80
2022-11-05T21:10:55.127Z,3.58
2022-11-05T21:13:22.587Z,3.95
2022-11-05T21:15:51.114Z,3.75
2022-11-05T21:18:18.906Z,3.70
2022-11-05T21:20:47.760Z,3.38
2022-11-05T21:23:15.505Z,3.38
2022-11-05T21:25:43.258Z,3.30
2022-11-05T21:28:11.506Z,3.63
2022-11-05T21:30:41.882Z,3.55
2022-11-05T21:35:39.783Z,3.40
2022-11-05T21:38:08.553Z,3.85
2022-11-05T21:40:36.022Z,3.60
2022-11-05T21:43:03.460Z,3.33
2022-11-05T21:45:30.943Z,3.10
2022-11-05T21:47:58.388Z,3.33
2022-11-05T21:50:46.063Z,3.08
2022-11-05T21:53:32.647Z,3.38
2022-11-05T21:56:18.039Z,3.22
2022-11-05T21:59:03.525Z,2.72
2022-11-05T22:01:31.592Z,3.15
2022-11-05T22:04:03.036Z,3.25
2022-11-05T22:06:33.063Z,2.97
2022-11-05T22:09:01.821Z,2.75
2022-11-05T22:11:29.281Z,3.05
2022-11-05T22:13:56.756Z,2.90
2022-11-05T22:16:24.228Z,3.25
2022-11-05T22:18:51.725Z,2.92
2022-11-05T22:21:19.472Z,3.10
2022-11-05T22:23:47.051Z,3.72
2022-11-05T22:26:16.419Z,2.75
2022-11-05T22:28:43.903Z,3.30
2022-11-05T22:31:13.335Z,2.90
2022-11-05T22:33:40.795Z,3.33
2022-11-05T22:36:08.759Z,3.42
2022-11-05T22:38:36.201Z,2.90
2022-11-05T22:41:07.780Z,3.13
2022-11-05T22:43:36.554Z,3.10
2022-11-05T22:46:05.506Z,3.15
2022-11-05T22:48:33.180Z,2.92
2022-11-05T22:51:03.601Z,3.15
2022-11-05T22:53:31.160Z,2.88
2022-11-05T22:55:58.753Z,3.03
2022-11-05T22:58:26.205Z,3.40
2022-11-05T23:00:54.998Z,2.90
2022-11-05T23:03:22.445Z,3.45
2022-11-05T23:05:57.443Z,2.80
2022-11-05T23:08:42.372Z,2.40
2022-11-05T23:11:32.406Z,3.10
2022-11-05T23:13:59.864Z,2.80
2022-11-05T23:17:00.853Z,2.95
2022-11-05T23:19:45.962Z,2.78
2022-11-05T23:22:31.511Z,2.80
2022-11-05T23:24:58.956Z,2.53
2022-11-05T23:27:29.610Z,2.85
2022-11-05T23:29:58.386Z,3.00
2022-11-05T23:34:45.917Z,2.88
2022-11-05T23:37:31.136Z,2.92
2022-11-05T23:39:58.633Z,2.67
2022-11-05T23:42:43.729Z,2.70
2022-11-05T23:45:29.387Z,2.80
2022-11-05T23:48:15.016Z,2.95
2022-11-05T23:50:44.726Z,2.70
2022-11-05T23:53:12.264Z,3.00
2022-11-05T23:55:40.350Z,2.60
2022-11-05T23:58:08.256Z,3.17
